»·PEaware :: VRD1056 KSLC-KEGE

VRD1056 :: KSLC-KEGE

FLIGHT INFORMATION

Flight Status: Arrived
Operator:
Virgin America
More flights by this operator :: More flights under this callsign
Pilot: Josh G. (4619)
Aircraft: AIRBUS A320
(A320)
More flights by this aircraft type
Origin: KSLC Salt Lake City Intl
United States
Destination: KEGE Eagle Co Regl
United States
More flights between these airports :: More routes between these airports
Route: +NSIGN5 EKR RLG
File this flight plan on PilotEdge
Remarks:
Altitude:
(Current/Filed)
290ft
Speed:
(Current/Filed)
320kts
Departed: 04-Jan-18 10:13 PM
Arrived: 04-Jan-18 11:02 PM
Distance/Time
Traveled:
242nm/0:49
Distance/Time
To Go:
Arrived

Flight Plot

Page will automatically refresh every two minutes.

Flight plan parsing failed; only flown route is shown


Map Options




Map Legend


Flown Route
Filed Route
Departure Airport
Arrival Airport
Navaid (VOR, NDB)
Fix

Horizontal Profiles

Position Reports

Time Latitude Longitude Heading Altitude Ground
Speed
04-Jan-18 22:01 40.789224 -111.978355 187 4236ft 0kts
04-Jan-18 22:02 40.789224 -111.978355 187 4236ft 0kts
04-Jan-18 22:03 40.789224 -111.978355 187 4236ft 0kts
04-Jan-18 22:04 40.789224 -111.978355 187 4236ft 0kts
04-Jan-18 22:05 40.789224 -111.978355 187 4236ft 0kts
04-Jan-18 22:06 40.789224 -111.978355 187 4236ft 0kts
04-Jan-18 22:07 40.789225 -111.978355 187 4236ft 0kts
04-Jan-18 22:08 40.789637 -111.978561 117 4236ft 2kts
04-Jan-18 22:09 40.789674 -111.978871 85 4236ft 0kts
04-Jan-18 22:10 40.789674 -111.978871 85 4236ft 0kts
04-Jan-18 22:11 40.789681 -111.978774 85 4236ft 0kts
04-Jan-18 22:12 40.789725 -111.978062 84 4236ft 0kts
04-Jan-18 22:13 40.789725 -111.978062 84 4236ft 0kts
04-Jan-18 22:14 40.788429 -111.976897 176 4236ft 19kts
04-Jan-18 22:15 40.781228 -111.976032 171 4236ft 19kts
04-Jan-18 22:16 40.776296 -111.975025 173 4236ft 16kts
04-Jan-18 22:17 40.774600 -111.974759 170 4236ft 0kts
04-Jan-18 22:18 40.774514 -111.974637 111 4236ft 0kts
04-Jan-18 22:19 40.776751 -111.973385 354 4236ft 41kts
04-Jan-18 22:20 40.815026 -111.977766 353 5454ft 177kts
04-Jan-18 22:21 40.870368 -111.985280 353 7535ft 234kts
04-Jan-18 22:22 40.939288 -111.994733 353 10046ft 261kts
04-Jan-18 22:23 41.007654 -112.003605 2 12329ft 292kts
04-Jan-18 22:24 41.054385 -111.923610 101 14707ft 322kts
04-Jan-18 22:25 41.000477 -111.830803 137 17069ft 332kts
04-Jan-18 22:26 40.935051 -111.742779 137 19231ft 348kts
04-Jan-18 22:27 40.863329 -111.646877 137 20349ft 390kts
04-Jan-18 22:28 40.817368 -111.510676 106 21174ft 434kts
04-Jan-18 22:29 40.783334 -111.355127 107 22387ft 451kts
04-Jan-18 22:30 40.749189 -111.204369 107 23589ft 462kts
04-Jan-18 22:31 40.711887 -111.040733 107 24718ft 474kts
04-Jan-18 22:32 40.673380 -110.873055 106 25756ft 486kts
04-Jan-18 22:33 40.633657 -110.701392 105 26790ft 495kts
04-Jan-18 22:34 40.593096 -110.527421 105 27774ft 504kts
04-Jan-18 22:35 40.551568 -110.350677 105 28700ft 511kts
04-Jan-18 22:36 40.515681 -110.174878 102 29412ft 513kts
04-Jan-18 22:37 40.481471 -109.994060 102 29412ft 512kts
04-Jan-18 22:38 40.446957 -109.813266 102 29413ft 512kts
04-Jan-18 22:39 40.412178 -109.632711 102 29412ft 512kts
04-Jan-18 22:40 40.377085 -109.452164 102 29412ft 512kts
04-Jan-18 22:41 40.342736 -109.277019 103 29413ft 512kts
04-Jan-18 22:42 40.307623 -109.099547 103 29414ft 510kts
04-Jan-18 22:43 40.272084 -108.921450 103 29412ft 504kts
04-Jan-18 22:44 40.236401 -108.744257 103 29413ft 505kts
04-Jan-18 22:45 40.200446 -108.567203 103 29407ft 505kts
04-Jan-18 22:46 40.164254 -108.390483 103 29403ft 505kts
04-Jan-18 22:47 40.129945 -108.224263 103 28735ft 482kts
04-Jan-18 22:48 40.096197 -108.062063 103 27616ft 468kts
04-Jan-18 22:49 40.066513 -107.899354 91 26441ft 455kts
04-Jan-18 22:50 40.060302 -107.737183 90 25276ft 445kts
04-Jan-18 22:51 40.054017 -107.578635 90 24115ft 436kts
04-Jan-18 22:52 40.047654 -107.423368 91 22971ft 427kts
04-Jan-18 22:53 40.041382 -107.274138 91 21791ft 416kts
04-Jan-18 22:54 40.035137 -107.130958 92 18547ft 391kts
04-Jan-18 22:55 40.023913 -106.996634 116 15304ft 366kts
04-Jan-18 22:56 39.970143 -106.888484 124 14147ft 358kts
04-Jan-18 22:57 39.917389 -106.784736 124 14121ft 304kts
04-Jan-18 22:58 39.877041 -106.705440 124 14118ft 250kts
04-Jan-18 22:59 39.839589 -106.632310 125 14118ft 247kts
04-Jan-18 23:00 39.801169 -106.558480 135 13838ft 249kts
04-Jan-18 23:01 39.740109 -106.553255 200 12661ft 222kts
04-Jan-18 23:02 39.708677 -106.600933 255 12164ft 179kts
04-Jan-18 23:03 39.695705 -106.663795 254 11695ft 181kts
04-Jan-18 23:04 39.682095 -106.726869 252 11056ft 177kts
04-Jan-18 23:05 39.666763 -106.783381 249 9724ft 161kts
04-Jan-18 23:06 39.652722 -106.836291 249 8187ft 152kts
04-Jan-18 23:07 39.645653 -106.889609 259 6704ft 156kts
04-Jan-18 23:08 39.641192 -106.922708 152 6553ft 8kts
04-Jan-18 23:09 39.641230 -106.919798 81 6553ft 14kts
04-Jan-18 23:10 39.641902 -106.913700 82 6553ft 18kts
04-Jan-18 23:11 39.640878 -106.912734 169 6553ft 0kts
04-Jan-18 23:12 39.640878 -106.912734 169 6553ft 0kts
04-Jan-18 23:13 39.640878 -106.912734 169 6553ft 0kts
04-Jan-18 23:14 39.640878 -106.912734 169 6553ft 0kts
04-Jan-18 23:15 39.640878 -106.912734 169 6553ft 0kts
04-Jan-18 23:16 39.640878 -106.912734 169 6553ft 0kts
04-Jan-18 23:17 39.640878 -106.912734 169 6553ft 0kts
04-Jan-18 23:18 39.640878 -106.912734 169 6553ft 0kts
04-Jan-18 23:19 39.640878 -106.912734 169 6553ft 0kts
04-Jan-18 23:20 39.640878 -106.912734 169 6553ft 0kts
04-Jan-18 23:21 39.640878 -106.912734 169 6553ft 0kts
04-Jan-18 23:22 39.640878 -106.912734 169 6553ft 0kts

Navigation Log

Ident Type
Flight plan parsing failed, navigation log unavailable